sensor_id;sensor_type;location;lat;lon;timestamp;P1;durP1;ratioP1;P2;durP2;ratioP2
16063;SDS011;8136;53.172;8.256;2023-12-29T00:01:10;7.30;;;1.73;;
16063;SDS011;8136;53.172;8.256;2023-12-29T00:03:38;3.07;;;1.30;;
16063;SDS011;8136;53.172;8.256;2023-12-29T00:06:05;8.10;;;1.80;;
16063;SDS011;8136;53.172;8.256;2023-12-29T00:08:32;8.87;;;2.10;;
16063;SDS011;8136;53.172;8.256;2023-12-29T00:10:59;2.73;;;1.70;;
16063;SDS011;8136;53.172;8.256;2023-12-29T00:13:26;6.03;;;1.77;;
16063;SDS011;8136;53.172;8.256;2023-12-29T00:15:53;5.73;;;1.70;;
16063;SDS011;8136;53.172;8.256;2023-12-29T00:18:22;6.03;;;1.60;;
16063;SDS011;8136;53.172;8.256;2023-12-29T00:20:50;7.40;;;1.70;;
16063;SDS011;8136;53.172;8.256;2023-12-29T00:23:17;2.93;;;1.43;;
16063;SDS011;8136;53.172;8.256;2023-12-29T00:25:44;3.90;;;1.63;;
16063;SDS011;8136;53.172;8.256;2023-12-29T00:28:11;3.93;;;1.70;;
16063;SDS011;8136;53.172;8.256;2023-12-29T00:30:39;9.27;;;2.50;;
16063;SDS011;8136;53.172;8.256;2023-12-29T00:33:06;8.83;;;1.87;;
16063;SDS011;8136;53.172;8.256;2023-12-29T00:35:33;6.20;;;1.50;;
16063;SDS011;8136;53.172;8.256;2023-12-29T00:38:04;3.77;;;1.60;;
16063;SDS011;8136;53.172;8.256;2023-12-29T00:40:31;6.47;;;1.77;;
16063;SDS011;8136;53.172;8.256;2023-12-29T00:42:59;6.47;;;1.97;;
16063;SDS011;8136;53.172;8.256;2023-12-29T00:45:26;5.93;;;2.00;;
16063;SDS011;8136;53.172;8.256;2023-12-29T00:47:57;3.97;;;1.43;;
16063;SDS011;8136;53.172;8.256;2023-12-29T00:50:24;3.93;;;1.87;;
16063;SDS011;8136;53.172;8.256;2023-12-29T00:52:51;3.60;;;1.90;;
16063;SDS011;8136;53.172;8.256;2023-12-29T00:55:20;7.17;;;1.63;;
16063;SDS011;8136;53.172;8.256;2023-12-29T00:57:47;4.33;;;1.60;;
16063;SDS011;8136;53.172;8.256;2023-12-29T01:00:14;4.77;;;1.60;;
16063;SDS011;8136;53.172;8.256;2023-12-29T01:02:41;6.67;;;1.33;;
16063;SDS011;8136;53.172;8.256;2023-12-29T01:05:08;5.63;;;1.50;;
16063;SDS011;8136;53.172;8.256;2023-12-29T01:07:34;4.70;;;1.67;;
16063;SDS011;8136;53.172;8.256;2023-12-29T01:10:01;4.37;;;1.30;;
16063;SDS011;8136;53.172;8.256;2023-12-29T01:12:30;2.70;;;1.20;;
16063;SDS011;8136;53.172;8.256;2023-12-29T01:14:57;4.63;;;1.50;;
16063;SDS011;8136;53.172;8.256;2023-12-29T01:17:24;7.97;;;1.40;;
16063;SDS011;8136;53.172;8.256;2023-12-29T01:19:53;6.80;;;1.63;;
16063;SDS011;8136;53.172;8.256;2023-12-29T01:22:20;4.37;;;1.50;;
16063;SDS011;8136;53.172;8.256;2023-12-29T01:24:46;4.77;;;1.93;;
16063;SDS011;8136;53.172;8.256;2023-12-29T01:27:13;3.00;;;1.50;;
16063;SDS011;8136;53.172;8.256;2023-12-29T01:29:41;4.07;;;1.50;;
16063;SDS011;8136;53.172;8.256;2023-12-29T01:32:08;4.90;;;1.40;;
16063;SDS011;8136;53.172;8.256;2023-12-29T01:34:35;8.73;;;2.07;;
16063;SDS011;8136;53.172;8.256;2023-12-29T01:37:02;6.17;;;1.37;;
16063;SDS011;8136;53.172;8.256;2023-12-29T01:39:29;2.30;;;1.20;;
16063;SDS011;8136;53.172;8.256;2023-12-29T01:41:56;3.43;;;1.43;;
16063;SDS011;8136;53.172;8.256;2023-12-29T01:44:23;3.40;;;1.20;;
16063;SDS011;8136;53.172;8.256;2023-12-29T01:46:53;3.20;;;1.30;;
16063;SDS011;8136;53.172;8.256;2023-12-29T01:49:21;3.27;;;0.80;;
16063;SDS011;8136;53.172;8.256;2023-12-29T01:51:49;4.53;;;1.33;;
16063;SDS011;8136;53.172;8.256;2023-12-29T01:54:18;3.87;;;1.00;;
16063;SDS011;8136;53.172;8.256;2023-12-29T01:56:46;2.33;;;1.10;;
16063;SDS011;8136;53.172;8.256;2023-12-29T01:59:14;1.43;;;0.77;;
16063;SDS011;8136;53.172;8.256;2023-12-29T02:01:42;3.23;;;1.17;;
16063;SDS011;8136;53.172;8.256;2023-12-29T02:04:12;3.40;;;1.00;;
16063;SDS011;8136;53.172;8.256;2023-12-29T02:06:39;3.47;;;1.10;;
16063;SDS011;8136;53.172;8.256;2023-12-29T02:09:07;3.90;;;1.57;;
16063;SDS011;8136;53.172;8.256;2023-12-29T02:11:34;4.87;;;1.60;;
16063;SDS011;8136;53.172;8.256;2023-12-29T02:14:01;5.53;;;1.30;;
16063;SDS011;8136;53.172;8.256;2023-12-29T02:16:30;5.27;;;1.93;;
16063;SDS011;8136;53.172;8.256;2023-12-29T02:19:04;2.43;;;0.90;;
16063;SDS011;8136;53.172;8.256;2023-12-29T02:21:43;4.90;;;1.60;;
16063;SDS011;8136;53.172;8.256;2023-12-29T02:24:10;4.90;;;1.50;;
16063;SDS011;8136;53.172;8.256;2023-12-29T02:26:39;6.03;;;1.70;;
16063;SDS011;8136;53.172;8.256;2023-12-29T02:29:11;3.00;;;1.20;;
16063;SDS011;8136;53.172;8.256;2023-12-29T02:31:42;2.33;;;1.67;;
16063;SDS011;8136;53.172;8.256;2023-12-29T02:34:11;6.37;;;1.70;;
16063;SDS011;8136;53.172;8.256;2023-12-29T02:36:40;4.47;;;1.73;;
16063;SDS011;8136;53.172;8.256;2023-12-29T02:39:08;8.20;;;2.00;;
16063;SDS011;8136;53.172;8.256;2023-12-29T02:41:36;4.27;;;1.77;;
16063;SDS011;8136;53.172;8.256;2023-12-29T02:44:04;8.37;;;1.60;;
16063;SDS011;8136;53.172;8.256;2023-12-29T02:46:31;7.50;;;1.80;;
16063;SDS011;8136;53.172;8.256;2023-12-29T02:48:58;2.80;;;1.50;;
16063;SDS011;8136;53.172;8.256;2023-12-29T02:51:25;3.83;;;1.40;;
16063;SDS011;8136;53.172;8.256;2023-12-29T02:53:51;7.53;;;1.77;;
16063;SDS011;8136;53.172;8.256;2023-12-29T02:56:18;2.23;;;1.27;;
16063;SDS011;8136;53.172;8.256;2023-12-29T02:58:44;6.23;;;1.47;;
16063;SDS011;8136;53.172;8.256;2023-12-29T03:01:14;3.33;;;1.40;;
16063;SDS011;8136;53.172;8.256;2023-12-29T03:03:41;6.80;;;1.90;;
16063;SDS011;8136;53.172;8.256;2023-12-29T03:06:08;4.43;;;1.43;;
16063;SDS011;8136;53.172;8.256;2023-12-29T03:08:35;7.10;;;2.10;;
16063;SDS011;8136;53.172;8.256;2023-12-29T03:11:02;3.97;;;1.40;;
16063;SDS011;8136;53.172;8.256;2023-12-29T03:13:29;5.70;;;1.03;;
16063;SDS011;8136;53.172;8.256;2023-12-29T03:15:56;3.83;;;0.70;;
16063;SDS011;8136;53.172;8.256;2023-12-29T03:18:24;0.97;;;0.87;;
16063;SDS011;8136;53.172;8.256;2023-12-29T03:20:51;3.83;;;0.87;;
16063;SDS011;8136;53.172;8.256;2023-12-29T03:23:18;2.13;;;0.93;;
16063;SDS011;8136;53.172;8.256;2023-12-29T03:25:45;2.60;;;0.70;;
16063;SDS011;8136;53.172;8.256;2023-12-29T03:28:11;3.10;;;0.80;;
16063;SDS011;8136;53.172;8.256;2023-12-29T03:30:38;2.73;;;0.83;;
16063;SDS011;8136;53.172;8.256;2023-12-29T03:33:05;4.43;;;0.90;;
16063;SDS011;8136;53.172;8.256;2023-12-29T03:35:33;5.97;;;0.87;;
16063;SDS011;8136;53.172;8.256;2023-12-29T03:38:00;5.00;;;1.00;;
16063;SDS011;8136;53.172;8.256;2023-12-29T03:40:27;3.50;;;1.40;;
16063;SDS011;8136;53.172;8.256;2023-12-29T03:42:54;1.70;;;1.07;;
16063;SDS011;8136;53.172;8.256;2023-12-29T03:45:21;8.53;;;1.47;;
16063;SDS011;8136;53.172;8.256;2023-12-29T03:47:48;3.83;;;1.40;;
16063;SDS011;8136;53.172;8.256;2023-12-29T03:50:15;8.43;;;1.50;;
16063;SDS011;8136;53.172;8.256;2023-12-29T03:52:43;8.53;;;1.43;;
16063;SDS011;8136;53.172;8.256;2023-12-29T06:17:20;11.70;;;1.53;;
16063;SDS011;8136;53.172;8.256;2023-12-29T06:19:47;3.07;;;1.70;;
16063;SDS011;8136;53.172;8.256;2023-12-29T06:22:14;12.73;;;2.67;;
16063;SDS011;8136;53.172;8.256;2023-12-29T06:24:41;9.87;;;2.27;;
16063;SDS011;8136;53.172;8.256;2023-12-29T06:27:08;10.43;;;2.70;;
16063;SDS011;8136;53.172;8.256;2023-12-29T06:29:35;8.80;;;2.13;;
16063;SDS011;8136;53.172;8.256;2023-12-29T06:32:03;10.13;;;1.90;;
16063;SDS011;8136;53.172;8.256;2023-12-29T06:34:32;9.03;;;1.97;;
16063;SDS011;8136;53.172;8.256;2023-12-29T06:36:59;8.43;;;2.00;;
16063;SDS011;8136;53.172;8.256;2023-12-29T06:39:27;9.50;;;2.50;;
16063;SDS011;8136;53.172;8.256;2023-12-29T06:41:54;9.60;;;2.23;;
16063;SDS011;8136;53.172;8.256;2023-12-29T06:44:20;12.97;;;2.60;;
16063;SDS011;8136;53.172;8.256;2023-12-29T06:46:47;6.03;;;2.00;;
16063;SDS011;8136;53.172;8.256;2023-12-29T06:49:15;9.73;;;1.93;;
16063;SDS011;8136;53.172;8.256;2023-12-29T06:51:43;7.20;;;1.90;;
16063;SDS011;8136;53.172;8.256;2023-12-29T06:54:10;13.03;;;2.43;;
16063;SDS011;8136;53.172;8.256;2023-12-29T06:56:37;7.90;;;1.83;;
16063;SDS011;8136;53.172;8.256;2023-12-29T06:59:04;12.87;;;2.60;;
16063;SDS011;8136;53.172;8.256;2023-12-29T07:01:33;7.00;;;2.30;;
16063;SDS011;8136;53.172;8.256;2023-12-29T07:04:00;10.30;;;2.10;;
16063;SDS011;8136;53.172;8.256;2023-12-29T07:06:27;5.10;;;1.40;;
16063;SDS011;8136;53.172;8.256;2023-12-29T07:08:55;9.77;;;2.47;;
16063;SDS011;8136;53.172;8.256;2023-12-29T07:11:23;10.20;;;1.93;;
16063;SDS011;8136;53.172;8.256;2023-12-29T07:13:51;14.03;;;2.13;;
16063;SDS011;8136;53.172;8.256;2023-12-29T07:16:18;13.03;;;2.77;;
16063;SDS011;8136;53.172;8.256;2023-12-29T07:18:45;6.87;;;2.33;;
16063;SDS011;8136;53.172;8.256;2023-12-29T07:21:12;10.70;;;2.17;;
16063;SDS011;8136;53.172;8.256;2023-12-29T07:23:41;10.97;;;2.53;;
16063;SDS011;8136;53.172;8.256;2023-12-29T07:26:13;15.03;;;2.23;;
16063;SDS011;8136;53.172;8.256;2023-12-29T07:28:39;11.50;;;2.47;;
16063;SDS011;8136;53.172;8.256;2023-12-29T07:31:07;11.13;;;2.30;;
16063;SDS011;8136;53.172;8.256;2023-12-29T07:33:34;9.83;;;2.23;;
16063;SDS011;8136;53.172;8.256;2023-12-29T07:36:01;10.67;;;2.57;;
16063;SDS011;8136;53.172;8.256;2023-12-29T07:38:28;13.10;;;2.30;;
16063;SDS011;8136;53.172;8.256;2023-12-29T07:40:55;9.13;;;2.07;;
16063;SDS011;8136;53.172;8.256;2023-12-29T07:43:23;12.07;;;2.77;;
16063;SDS011;8136;53.172;8.256;2023-12-29T07:45:51;11.67;;;3.10;;
16063;SDS011;8136;53.172;8.256;2023-12-29T07:48:18;6.33;;;1.73;;
16063;SDS011;8136;53.172;8.256;2023-12-29T07:50:45;13.47;;;2.60;;
16063;SDS011;8136;53.172;8.256;2023-12-29T07:53:12;13.00;;;2.27;;
16063;SDS011;8136;53.172;8.256;2023-12-29T07:55:41;9.03;;;2.20;;
16063;SDS011;8136;53.172;8.256;2023-12-29T07:58:11;9.03;;;2.20;;
16063;SDS011;8136;53.172;8.256;2023-12-29T08:00:41;11.17;;;2.03;;
16063;SDS011;8136;53.172;8.256;2023-12-29T08:03:08;9.87;;;2.20;;
16063;SDS011;8136;53.172;8.256;2023-12-29T08:05:34;11.83;;;2.67;;
16063;SDS011;8136;53.172;8.256;2023-12-29T08:08:02;8.87;;;2.50;;
16063;SDS011;8136;53.172;8.256;2023-12-29T08:10:31;8.73;;;2.43;;
16063;SDS011;8136;53.172;8.256;2023-12-29T08:12:58;12.90;;;2.57;;
16063;SDS011;8136;53.172;8.256;2023-12-29T08:15:25;10.10;;;3.13;;
16063;SDS011;8136;53.172;8.256;2023-12-29T08:17:53;9.50;;;2.50;;
16063;SDS011;8136;53.172;8.256;2023-12-29T08:20:20;6.77;;;2.40;;
16063;SDS011;8136;53.172;8.256;2023-12-29T08:22:47;12.50;;;2.47;;
16063;SDS011;8136;53.172;8.256;2023-12-29T08:25:15;10.50;;;2.40;;
16063;SDS011;8136;53.172;8.256;2023-12-29T08:27:45;5.57;;;2.23;;
16063;SDS011;8136;53.172;8.256;2023-12-29T08:30:12;14.57;;;2.60;;
16063;SDS011;8136;53.172;8.256;2023-12-29T08:32:40;9.90;;;2.20;;
16063;SDS011;8136;53.172;8.256;2023-12-29T08:35:09;7.57;;;2.47;;
16063;SDS011;8136;53.172;8.256;2023-12-29T08:37:37;12.00;;;2.47;;
16063;SDS011;8136;53.172;8.256;2023-12-29T08:40:04;8.43;;;2.47;;
16063;SDS011;8136;53.172;8.256;2023-12-29T08:42:33;13.27;;;1.60;;
16063;SDS011;8136;53.172;8.256;2023-12-29T08:45:00;7.37;;;1.87;;
16063;SDS011;8136;53.172;8.256;2023-12-29T08:47:27;6.50;;;1.90;;
16063;SDS011;8136;53.172;8.256;2023-12-29T08:49:55;6.50;;;1.40;;
16063;SDS011;8136;53.172;8.256;2023-12-29T08:52:23;5.70;;;1.80;;
16063;SDS011;8136;53.172;8.256;2023-12-29T08:54:50;9.00;;;1.73;;
16063;SDS011;8136;53.172;8.256;2023-12-29T08:57:17;5.23;;;1.73;;
16063;SDS011;8136;53.172;8.256;2023-12-29T08:59:44;7.17;;;2.03;;
16063;SDS011;8136;53.172;8.256;2023-12-29T09:02:11;6.93;;;1.97;;
16063;SDS011;8136;53.172;8.256;2023-12-29T09:04:38;6.80;;;1.60;;
16063;SDS011;8136;53.172;8.256;2023-12-29T09:07:05;10.47;;;2.07;;
16063;SDS011;8136;53.172;8.256;2023-12-29T09:09:34;5.87;;;1.90;;
16063;SDS011;8136;53.172;8.256;2023-12-29T09:12:01;10.57;;;2.00;;
16063;SDS011;8136;53.172;8.256;2023-12-29T09:14:28;8.63;;;2.50;;
16063;SDS011;8136;53.172;8.256;2023-12-29T09:16:57;16.63;;;2.80;;
16063;SDS011;8136;53.172;8.256;2023-12-29T09:19:24;8.77;;;1.70;;
16063;SDS011;8136;53.172;8.256;2023-12-29T09:21:51;11.47;;;2.50;;
16063;SDS011;8136;53.172;8.256;2023-12-29T09:24:18;7.40;;;2.23;;
16063;SDS011;8136;53.172;8.256;2023-12-29T09:26:49;10.03;;;2.30;;
16063;SDS011;8136;53.172;8.256;2023-12-29T09:29:17;6.87;;;2.20;;
16063;SDS011;8136;53.172;8.256;2023-12-29T09:31:44;10.33;;;2.40;;
16063;SDS011;8136;53.172;8.256;2023-12-29T09:34:11;7.10;;;2.10;;
16063;SDS011;8136;53.172;8.256;2023-12-29T09:36:38;7.70;;;2.00;;
16063;SDS011;8136;53.172;8.256;2023-12-29T09:39:05;9.60;;;2.70;;
16063;SDS011;8136;53.172;8.256;2023-12-29T09:41:32;10.07;;;2.30;;
16063;SDS011;8136;53.172;8.256;2023-12-29T09:44:03;12.07;;;2.30;;
16063;SDS011;8136;53.172;8.256;2023-12-29T09:46:33;11.33;;;2.43;;
16063;SDS011;8136;53.172;8.256;2023-12-29T09:49:01;12.20;;;2.43;;
16063;SDS011;8136;53.172;8.256;2023-12-29T09:51:30;10.17;;;2.57;;
16063;SDS011;8136;53.172;8.256;2023-12-29T09:53:57;9.63;;;2.40;;
16063;SDS011;8136;53.172;8.256;2023-12-29T09:56:25;8.87;;;2.17;;
16063;SDS011;8136;53.172;8.256;2023-12-29T09:58:52;12.00;;;2.27;;
16063;SDS011;8136;53.172;8.256;2023-12-29T10:01:24;10.10;;;2.13;;
16063;SDS011;8136;53.172;8.256;2023-12-29T10:03:54;9.87;;;2.57;;
16063;SDS011;8136;53.172;8.256;2023-12-29T10:06:24;6.43;;;2.40;;
16063;SDS011;8136;53.172;8.256;2023-12-29T10:08:52;11.40;;;2.77;;
16063;SDS011;8136;53.172;8.256;2023-12-29T10:11:21;14.83;;;2.20;;
16063;SDS011;8136;53.172;8.256;2023-12-29T10:13:49;9.50;;;1.73;;
16063;SDS011;8136;53.172;8.256;2023-12-29T10:16:21;9.57;;;2.37;;
16063;SDS011;8136;53.172;8.256;2023-12-29T10:19:05;4.83;;;1.60;;
16063;SDS011;8136;53.172;8.256;2023-12-29T10:21:40;5.23;;;1.63;;
16063;SDS011;8136;53.172;8.256;2023-12-29T10:24:18;5.23;;;1.50;;
16063;SDS011;8136;53.172;8.256;2023-12-29T10:26:47;5.07;;;1.70;;
16063;SDS011;8136;53.172;8.256;2023-12-29T10:29:19;7.43;;;1.77;;
16063;SDS011;8136;53.172;8.256;2023-12-29T10:31:49;7.47;;;1.90;;
16063;SDS011;8136;53.172;8.256;2023-12-29T10:34:34;5.70;;;1.40;;
16063;SDS011;8136;53.172;8.256;2023-12-29T10:37:02;5.30;;;1.93;;
16063;SDS011;8136;53.172;8.256;2023-12-29T10:39:40;6.83;;;2.00;;
16063;SDS011;8136;53.172;8.256;2023-12-29T10:42:27;7.23;;;1.57;;
16063;SDS011;8136;53.172;8.256;2023-12-29T10:45:07;4.80;;;1.60;;
16063;SDS011;8136;53.172;8.256;2023-12-29T10:50:20;3.80;;;1.60;;
16063;SDS011;8136;53.172;8.256;2023-12-29T10:55:42;6.47;;;1.30;;
16063;SDS011;8136;53.172;8.256;2023-12-29T10:58:18;6.10;;;1.67;;
16063;SDS011;8136;53.172;8.256;2023-12-29T11:00:50;3.53;;;1.47;;
16063;SDS011;8136;53.172;8.256;2023-12-29T11:03:26;6.47;;;1.50;;
16063;SDS011;8136;53.172;8.256;2023-12-29T11:05:58;8.13;;;1.60;;
16063;SDS011;8136;53.172;8.256;2023-12-29T11:08:27;3.27;;;1.53;;
16063;SDS011;8136;53.172;8.256;2023-12-29T11:10:54;3.57;;;1.37;;
16063;SDS011;8136;53.172;8.256;2023-12-29T11:13:21;2.50;;;1.20;;
16063;SDS011;8136;53.172;8.256;2023-12-29T11:15:49;6.63;;;1.53;;
16063;SDS011;8136;53.172;8.256;2023-12-29T11:18:21;3.43;;;1.20;;
16063;SDS011;8136;53.172;8.256;2023-12-29T11:20:55;3.00;;;1.50;;
16063;SDS011;8136;53.172;8.256;2023-12-29T11:23:25;7.70;;;1.60;;
16063;SDS011;8136;53.172;8.256;2023-12-29T11:25:52;5.37;;;1.47;;
16063;SDS011;8136;53.172;8.256;2023-12-29T11:28:19;4.47;;;1.57;;
16063;SDS011;8136;53.172;8.256;2023-12-29T11:30:46;4.77;;;1.47;;
16063;SDS011;8136;53.172;8.256;2023-12-29T11:33:14;7.87;;;1.30;;
16063;SDS011;8136;53.172;8.256;2023-12-29T11:35:48;5.17;;;1.57;;
16063;SDS011;8136;53.172;8.256;2023-12-29T11:38:26;4.33;;;1.73;;
16063;SDS011;8136;53.172;8.256;2023-12-29T11:41:08;3.70;;;1.40;;
16063;SDS011;8136;53.172;8.256;2023-12-29T11:43:43;7.07;;;1.53;;
16063;SDS011;8136;53.172;8.256;2023-12-29T11:49:00;3.90;;;1.20;;
16063;SDS011;8136;53.172;8.256;2023-12-29T11:51:32;6.13;;;1.40;;
16063;SDS011;8136;53.172;8.256;2023-12-29T11:54:02;3.83;;;1.63;;
16063;SDS011;8136;53.172;8.256;2023-12-29T11:56:33;7.43;;;2.10;;
16063;SDS011;8136;53.172;8.256;2023-12-29T11:59:12;3.23;;;1.13;;
16063;SDS011;8136;53.172;8.256;2023-12-29T12:01:40;3.60;;;1.23;;
16063;SDS011;8136;53.172;8.256;2023-12-29T12:07:06;6.37;;;1.23;;
16063;SDS011;8136;53.172;8.256;2023-12-29T12:09:36;1.67;;;1.00;;
16063;SDS011;8136;53.172;8.256;2023-12-29T12:12:03;5.70;;;1.30;;
16063;SDS011;8136;53.172;8.256;2023-12-29T12:14:43;3.50;;;1.00;;
16063;SDS011;8136;53.172;8.256;2023-12-29T12:17:28;3.87;;;1.10;;
16063;SDS011;8136;53.172;8.256;2023-12-29T12:19:56;2.93;;;1.03;;
16063;SDS011;8136;53.172;8.256;2023-12-29T12:22:24;2.00;;;1.00;;
16063;SDS011;8136;53.172;8.256;2023-12-29T12:24:56;3.47;;;1.50;;
16063;SDS011;8136;53.172;8.256;2023-12-29T13:11:33;6.60;;;1.43;;
16063;SDS011;8136;53.172;8.256;2023-12-29T13:14:00;7.87;;;1.47;;
16063;SDS011;8136;53.172;8.256;2023-12-29T13:16:30;5.63;;;1.57;;
16063;SDS011;8136;53.172;8.256;2023-12-29T13:19:09;8.00;;;1.80;;
16063;SDS011;8136;53.172;8.256;2023-12-29T13:21:42;7.57;;;1.53;;
16063;SDS011;8136;53.172;8.256;2023-12-29T13:54:15;10.10;;;2.27;;
16063;SDS011;8136;53.172;8.256;2023-12-29T13:56:52;8.67;;;2.03;;
16063;SDS011;8136;53.172;8.256;2023-12-29T13:59:31;2.13;;;1.17;;
16063;SDS011;8136;53.172;8.256;2023-12-29T14:02:27;4.47;;;1.50;;
16063;SDS011;8136;53.172;8.256;2023-12-29T14:05:10;7.57;;;1.93;;
16063;SDS011;8136;53.172;8.256;2023-12-29T14:08:04;9.67;;;1.67;;
16063;SDS011;8136;53.172;8.256;2023-12-29T14:10:45;9.83;;;1.87;;
16063;SDS011;8136;53.172;8.256;2023-12-29T14:13:12;5.27;;;1.43;;
16063;SDS011;8136;53.172;8.256;2023-12-29T14:15:41;3.93;;;1.23;;
16063;SDS011;8136;53.172;8.256;2023-12-29T14:18:13;5.33;;;1.60;;
16063;SDS011;8136;53.172;8.256;2023-12-29T14:21:02;5.77;;;1.47;;
16063;SDS011;8136;53.172;8.256;2023-12-29T14:23:30;5.53;;;1.80;;
16063;SDS011;8136;53.172;8.256;2023-12-29T14:26:01;7.60;;;1.40;;
16063;SDS011;8136;53.172;8.256;2023-12-29T14:28:29;6.47;;;1.73;;
16063;SDS011;8136;53.172;8.256;2023-12-29T14:31:00;4.43;;;1.70;;
16063;SDS011;8136;53.172;8.256;2023-12-29T14:33:28;6.73;;;1.57;;
16063;SDS011;8136;53.172;8.256;2023-12-29T14:35:55;5.00;;;1.70;;
16063;SDS011;8136;53.172;8.256;2023-12-29T14:38:22;9.83;;;1.80;;
16063;SDS011;8136;53.172;8.256;2023-12-29T14:40:51;10.53;;;2.17;;
16063;SDS011;8136;53.172;8.256;2023-12-29T14:43:18;5.20;;;1.50;;
16063;SDS011;8136;53.172;8.256;2023-12-29T14:45:45;8.77;;;2.07;;
16063;SDS011;8136;53.172;8.256;2023-12-29T14:48:11;4.80;;;1.77;;
16063;SDS011;8136;53.172;8.256;2023-12-29T14:50:38;9.27;;;1.90;;
16063;SDS011;8136;53.172;8.256;2023-12-29T14:53:10;7.10;;;1.90;;
16063;SDS011;8136;53.172;8.256;2023-12-29T14:55:37;8.30;;;1.43;;
16063;SDS011;8136;53.172;8.256;2023-12-29T14:58:05;1.97;;;0.80;;
16063;SDS011;8136;53.172;8.256;2023-12-29T15:00:32;6.30;;;1.97;;
16063;SDS011;8136;53.172;8.256;2023-12-29T15:03:00;6.80;;;1.77;;
16063;SDS011;8136;53.172;8.256;2023-12-29T15:05:27;8.93;;;1.77;;
16063;SDS011;8136;53.172;8.256;2023-12-29T15:07:54;6.73;;;1.87;;
16063;SDS011;8136;53.172;8.256;2023-12-29T15:10:21;6.57;;;1.87;;
16063;SDS011;8136;53.172;8.256;2023-12-29T15:12:47;8.83;;;2.13;;
16063;SDS011;8136;53.172;8.256;2023-12-29T15:15:16;10.70;;;2.00;;
16063;SDS011;8136;53.172;8.256;2023-12-29T15:17:43;7.30;;;1.90;;
16063;SDS011;8136;53.172;8.256;2023-12-29T15:20:10;6.17;;;1.90;;
16063;SDS011;8136;53.172;8.256;2023-12-29T15:22:37;5.10;;;1.40;;
16063;SDS011;8136;53.172;8.256;2023-12-29T15:25:04;8.43;;;2.37;;
16063;SDS011;8136;53.172;8.256;2023-12-29T15:27:31;6.00;;;1.90;;
16063;SDS011;8136;53.172;8.256;2023-12-29T15:29:58;9.70;;;1.97;;
16063;SDS011;8136;53.172;8.256;2023-12-29T15:32:27;9.03;;;1.60;;
16063;SDS011;8136;53.172;8.256;2023-12-29T15:34:54;4.87;;;1.30;;
16063;SDS011;8136;53.172;8.256;2023-12-29T15:37:20;5.20;;;1.60;;
16063;SDS011;8136;53.172;8.256;2023-12-29T15:39:47;9.63;;;1.87;;
16063;SDS011;8136;53.172;8.256;2023-12-29T15:42:14;7.43;;;2.40;;
16063;SDS011;8136;53.172;8.256;2023-12-29T15:44:41;9.67;;;2.10;;
16063;SDS011;8136;53.172;8.256;2023-12-29T15:47:08;10.13;;;1.80;;
16063;SDS011;8136;53.172;8.256;2023-12-29T15:49:37;6.50;;;1.97;;
16063;SDS011;8136;53.172;8.256;2023-12-29T15:52:04;4.87;;;1.70;;
16063;SDS011;8136;53.172;8.256;2023-12-29T15:54:31;9.33;;;2.00;;
16063;SDS011;8136;53.172;8.256;2023-12-29T15:56:59;11.67;;;2.30;;
16063;SDS011;8136;53.172;8.256;2023-12-29T15:59:28;4.87;;;1.57;;
16063;SDS011;8136;53.172;8.256;2023-12-29T16:01:55;9.00;;;2.20;;
16063;SDS011;8136;53.172;8.256;2023-12-29T16:04:21;7.83;;;1.80;;
16063;SDS011;8136;53.172;8.256;2023-12-29T16:06:54;6.37;;;2.00;;
16063;SDS011;8136;53.172;8.256;2023-12-29T16:09:21;7.80;;;1.70;;
16063;SDS011;8136;53.172;8.256;2023-12-29T16:11:48;6.73;;;1.70;;
16063;SDS011;8136;53.172;8.256;2023-12-29T16:14:19;10.97;;;2.23;;
16063;SDS011;8136;53.172;8.256;2023-12-29T16:16:47;6.47;;;1.60;;
16063;SDS011;8136;53.172;8.256;2023-12-29T16:19:13;5.07;;;1.80;;
16063;SDS011;8136;53.172;8.256;2023-12-29T16:21:40;8.70;;;1.83;;
16063;SDS011;8136;53.172;8.256;2023-12-29T16:24:09;8.03;;;2.27;;
16063;SDS011;8136;53.172;8.256;2023-12-29T16:26:37;9.23;;;2.00;;
16063;SDS011;8136;53.172;8.256;2023-12-29T16:29:06;6.17;;;2.07;;
16063;SDS011;8136;53.172;8.256;2023-12-29T16:31:32;9.47;;;2.40;;
16063;SDS011;8136;53.172;8.256;2023-12-29T16:34:00;10.03;;;2.00;;
16063;SDS011;8136;53.172;8.256;2023-12-29T16:36:27;8.10;;;1.90;;
16063;SDS011;8136;53.172;8.256;2023-12-29T16:38:55;6.53;;;2.40;;
16063;SDS011;8136;53.172;8.256;2023-12-29T16:41:23;10.50;;;2.90;;
16063;SDS011;8136;53.172;8.256;2023-12-29T16:43:50;7.97;;;2.27;;
16063;SDS011;8136;53.172;8.256;2023-12-29T16:46:17;5.23;;;2.03;;
16063;SDS011;8136;53.172;8.256;2023-12-29T16:48:44;10.37;;;2.10;;
16063;SDS011;8136;53.172;8.256;2023-12-29T16:51:11;5.83;;;2.17;;
16063;SDS011;8136;53.172;8.256;2023-12-29T16:53:37;7.10;;;1.70;;
16063;SDS011;8136;53.172;8.256;2023-12-29T16:56:04;7.27;;;1.97;;
16063;SDS011;8136;53.172;8.256;2023-12-29T16:58:33;5.57;;;1.70;;
16063;SDS011;8136;53.172;8.256;2023-12-29T17:01:05;10.87;;;2.10;;
16063;SDS011;8136;53.172;8.256;2023-12-29T17:03:32;5.80;;;1.73;;
16063;SDS011;8136;53.172;8.256;2023-12-29T17:05:59;6.97;;;2.10;;
16063;SDS011;8136;53.172;8.256;2023-12-29T17:08:25;7.63;;;1.93;;
16063;SDS011;8136;53.172;8.256;2023-12-29T17:10:52;5.93;;;1.53;;
16063;SDS011;8136;53.172;8.256;2023-12-29T17:13:19;8.40;;;1.93;;
16063;SDS011;8136;53.172;8.256;2023-12-29T17:15:47;5.60;;;1.90;;
16063;SDS011;8136;53.172;8.256;2023-12-29T17:18:14;9.10;;;2.30;;
16063;SDS011;8136;53.172;8.256;2023-12-29T17:20:41;10.63;;;2.47;;
16063;SDS011;8136;53.172;8.256;2023-12-29T17:23:11;6.37;;;2.30;;
16063;SDS011;8136;53.172;8.256;2023-12-29T17:25:52;9.20;;;2.53;;
16063;SDS011;8136;53.172;8.256;2023-12-29T17:28:19;7.13;;;1.80;;
16063;SDS011;8136;53.172;8.256;2023-12-29T17:30:53;9.60;;;2.23;;
16063;SDS011;8136;53.172;8.256;2023-12-29T17:33:21;11.27;;;2.07;;
16063;SDS011;8136;53.172;8.256;2023-12-29T17:35:54;6.37;;;2.27;;
16063;SDS011;8136;53.172;8.256;2023-12-29T17:38:22;7.03;;;2.03;;
16063;SDS011;8136;53.172;8.256;2023-12-29T17:40:48;8.33;;;2.20;;
16063;SDS011;8136;53.172;8.256;2023-12-29T17:43:15;6.77;;;2.10;;
16063;SDS011;8136;53.172;8.256;2023-12-29T17:45:43;4.30;;;1.97;;
16063;SDS011;8136;53.172;8.256;2023-12-29T17:48:11;5.43;;;1.70;;
16063;SDS011;8136;53.172;8.256;2023-12-29T17:50:38;8.10;;;2.03;;
16063;SDS011;8136;53.172;8.256;2023-12-29T17:53:05;8.47;;;2.37;;
16063;SDS011;8136;53.172;8.256;2023-12-29T17:55:32;7.73;;;2.20;;
16063;SDS011;8136;53.172;8.256;2023-12-29T17:57:59;10.73;;;2.23;;
16063;SDS011;8136;53.172;8.256;2023-12-29T18:00:26;4.90;;;1.70;;
16063;SDS011;8136;53.172;8.256;2023-12-29T18:02:53;14.57;;;2.30;;
16063;SDS011;8136;53.172;8.256;2023-12-29T18:05:21;9.47;;;1.77;;
16063;SDS011;8136;53.172;8.256;2023-12-29T18:07:49;4.67;;;2.07;;
16063;SDS011;8136;53.172;8.256;2023-12-29T18:10:16;5.80;;;1.57;;
16063;SDS011;8136;53.172;8.256;2023-12-29T18:12:43;12.23;;;2.33;;
16063;SDS011;8136;53.172;8.256;2023-12-29T18:15:10;4.30;;;2.13;;
16063;SDS011;8136;53.172;8.256;2023-12-29T18:17:39;4.83;;;2.27;;
16063;SDS011;8136;53.172;8.256;2023-12-29T18:20:06;6.40;;;1.97;;
16063;SDS011;8136;53.172;8.256;2023-12-29T18:22:39;7.00;;;2.30;;
16063;SDS011;8136;53.172;8.256;2023-12-29T18:25:06;9.63;;;2.40;;
16063;SDS011;8136;53.172;8.256;2023-12-29T18:27:34;3.43;;;1.60;;
16063;SDS011;8136;53.172;8.256;2023-12-29T18:30:02;7.47;;;2.13;;
16063;SDS011;8136;53.172;8.256;2023-12-29T18:32:30;5.60;;;1.80;;
16063;SDS011;8136;53.172;8.256;2023-12-29T18:34:57;7.10;;;1.90;;
16063;SDS011;8136;53.172;8.256;2023-12-29T18:37:23;7.27;;;1.67;;
16063;SDS011;8136;53.172;8.256;2023-12-29T18:39:52;6.87;;;1.80;;
16063;SDS011;8136;53.172;8.256;2023-12-29T18:42:19;6.30;;;1.70;;
16063;SDS011;8136;53.172;8.256;2023-12-29T18:44:46;6.83;;;1.40;;
16063;SDS011;8136;53.172;8.256;2023-12-29T18:47:13;4.40;;;1.20;;
16063;SDS011;8136;53.172;8.256;2023-12-29T18:49:39;5.10;;;1.50;;
16063;SDS011;8136;53.172;8.256;2023-12-29T18:52:06;6.10;;;1.60;;
16063;SDS011;8136;53.172;8.256;2023-12-29T18:54:33;4.97;;;1.37;;
16063;SDS011;8136;53.172;8.256;2023-12-29T18:57:02;3.00;;;1.10;;